Time;durP1;ratioP1;P1;durP2;ratioP2;P2;SDS_P1;SDS_P2;PMS_P1;PMS_P2;Temp;Humidity;BMP_temperature;BMP_pressure;BME280_temperature;BME280_humidity;BME280_pressure;Samples;Min_cycle;Max_cycle;Signal;HPM_P1;HPM_P2
2022/05/23 00:01:53;;;;;;;72.10;4.30;;;19.10;44.90;;;;;;6123650;23;20219;-82
2022/05/23 00:04:19;;;;;;;66.00;4.13;;;19.00;48.70;;;;;;6123656;23;20428;-82
2022/05/23 00:06:45;;;;;;;66.80;4.80;;;19.10;48.20;;;;;;6123368;23;20411;-82
2022/05/23 00:09:11;;;;;;;67.10;5.30;;;19.10;47.60;;;;;;6123643;23;20458;-82
2022/05/23 00:11:38;;;;;;;66.23;4.00;;;19.20;41.70;;;;;;6124662;23;20386;-82
2022/05/23 00:14:04;;;;;;;65.90;5.07;;;19.20;41.00;;;;;;6124056;23;20369;-82
2022/05/23 00:16:35;;;;;;;65.87;4.03;;;19.20;44.10;;;;;;6124111;23;20380;-82
2022/05/23 00:19:02;;;;;;;68.20;4.73;;;19.00;45.00;;;;;;6124013;23;20378;-83
2022/05/23 00:21:27;;;;;;;73.87;6.90;;;18.90;46.20;;;;;;6123617;23;20414;-83
2022/05/23 00:23:53;;;;;;;66.87;5.87;;;18.80;56.50;;;;;;6124383;23;20425;-83
2022/05/23 00:26:21;;;;;;;68.80;7.20;;;18.70;55.40;;;;;;6123832;23;20167;-83
2022/05/23 00:28:48;;;;;;;70.10;7.00;;;18.70;58.50;;;;;;6123603;23;20170;-83
2022/05/23 00:31:14;;;;;;;66.67;5.87;;;18.70;65.40;;;;;;6124056;23;20399;-83
2022/05/23 00:36:29;;;;;;;66.87;6.37;;;18.60;61.40;;;;;;6124189;23;20463;-82
2022/05/23 00:38:55;;;;;;;71.17;7.57;;;18.60;59.60;;;;;;6074159;23;20405;-83
2022/05/23 00:44:24;;;;;;;67.17;5.40;;;18.40;54.60;;;;;;6123693;23;20378;-82
2022/05/23 00:47:00;;;;;;;66.50;6.00;;;18.30;52.10;;;;;;6098007;23;20441;-82
2022/05/23 00:49:32;;;;;;;66.80;6.80;;;18.40;56.30;;;;;;6097742;23;20371;-83
2022/05/23 00:52:03;;;;;;;69.20;5.90;;;18.40;55.00;;;;;;6123910;23;20425;-82
2022/05/23 00:54:37;;;;;;;66.37;5.87;;;18.40;50.20;;;;;;6123566;23;20816;-83
2022/05/23 00:57:05;;;;;;;70.40;5.83;;;18.40;49.70;;;;;;6123920;23;20358;-83
2022/05/23 00:59:32;;;;;;;69.37;5.90;;;18.40;48.60;;;;;;6123597;23;20367;-83
2022/05/23 01:01:59;;;;;;;66.70;5.30;;;18.40;47.50;;;;;;6123468;23;20415;-83
2022/05/23 01:04:26;;;;;;;68.87;5.67;;;18.40;47.50;;;;;;6123183;23;20395;-83
2022/05/23 01:06:52;;;;;;;66.77;4.90;;;18.40;46.20;;;;;;6097239;23;20505;-83
2022/05/23 01:09:22;;;;;;;66.97;5.17;;;18.50;43.40;;;;;;6123095;23;20420;-83
2022/05/23 01:11:48;;;;;;;66.00;5.30;;;18.50;46.70;;;;;;6123903;23;20159;-83
2022/05/23 01:14:14;;;;;;;66.30;4.70;;;18.50;45.10;;;;;;6123744;23;20872;-83
2022/05/23 01:16:41;;;;;;;67.83;5.00;;;18.30;43.30;;;;;;6123767;23;20229;-82
2022/05/23 01:19:07;;;;;;;66.87;6.27;;;18.40;44.00;;;;;;6123583;23;20398;-83
2022/05/23 01:21:55;;;;;;;68.33;5.63;;;18.30;46.10;;;;;;6123426;23;20413;-82
2022/05/23 01:24:47;;;;;;;66.97;5.30;;;18.40;45.20;;;;;;6124225;23;20367;-83
2022/05/23 01:27:14;;;;;;;67.17;5.50;;;18.40;44.90;;;;;;6123879;23;20466;-83
2022/05/23 01:29:43;;;;;;;67.37;5.70;;;18.40;45.10;;;;;;6124072;23;20410;-83
2022/05/23 01:32:09;;;;;;;69.37;5.53;;;18.40;43.40;;;;;;6123581;23;20444;-83
2022/05/23 01:34:35;;;;;;;69.40;6.27;;;18.40;42.90;;;;;;6123763;23;20453;-83
2022/05/23 01:37:01;;;;;;;66.33;5.20;;;18.50;45.50;;;;;;6097642;23;20377;-83
2022/05/23 01:39:27;;;;;;;67.07;4.60;;;18.60;44.20;;;;;;6123532;22;20139;-83
2022/05/23 01:41:52;;;;;;;69.10;6.00;;;18.50;41.60;;;;;;6123389;23;20481;-83
2022/05/23 01:44:18;;;;;;;67.57;5.40;;;18.50;44.40;;;;;;6123781;23;20213;-83
2022/05/23 01:46:44;;;;;;;67.13;4.67;;;18.40;40.30;;;;;;6123374;23;20177;-83
2022/05/23 01:49:10;;;;;;;66.47;3.83;;;18.40;40.70;;;;;;6123494;23;20268;-83
2022/05/23 01:51:35;;;;;;;67.47;4.57;;;18.40;39.40;;;;;;6123292;23;20163;-83
2022/05/23 01:54:04;;;;;;;70.83;4.90;;;18.40;37.60;;;;;;6123500;23;20457;-83
2022/05/23 01:56:29;;;;;;;67.53;4.83;;;18.30;37.60;;;;;;6097567;23;20532;-83
2022/05/23 02:01:40;;;;;;;67.37;4.83;;;18.30;36.70;;;;;;6123556;23;20432;-82
2022/05/23 02:04:05;;;;;;;67.40;4.33;;;18.30;39.00;;;;;;6123702;23;20371;-83
2022/05/23 02:06:31;;;;;;;68.30;5.27;;;18.30;39.70;;;;;;6123698;23;20174;-82
2022/05/23 02:08:57;;;;;;;67.37;5.23;;;18.30;37.80;;;;;;6123116;23;20374;-83
2022/05/23 02:11:22;;;;;;;67.17;4.57;;;18.30;38.00;;;;;;6122931;23;20240;-83
2022/05/23 02:13:48;;;;;;;67.13;5.00;;;18.30;37.50;;;;;;6123053;23;20481;-83
2022/05/23 02:16:19;;;;;;;67.80;5.00;;;18.30;40.60;;;;;;6122981;23;20256;-83
2022/05/23 02:18:45;;;;;;;67.10;5.10;;;18.20;41.20;;;;;;6123606;23;20139;-83
2022/05/23 02:21:10;;;;;;;66.90;4.70;;;18.20;40.10;;;;;;6124471;23;20407;-83
2022/05/23 02:23:36;;;;;;;68.40;6.10;;;18.30;39.00;;;;;;6123873;23;20139;-83
2022/05/23 02:26:03;;;;;;;67.50;5.73;;;18.30;42.60;;;;;;6125543;23;20179;-83
2022/05/23 02:28:29;;;;;;;67.87;6.50;;;18.20;40.80;;;;;;6124149;23;20768;-83
2022/05/23 02:30:54;;;;;;;66.70;5.50;;;18.20;43.40;;;;;;6123365;23;20422;-83
2022/05/23 02:33:20;;;;;;;68.70;6.67;;;18.10;41.20;;;;;;6123804;23;20143;-83
2022/05/23 02:35:47;;;;;;;69.60;6.27;;;18.00;43.50;;;;;;6098156;23;20484;-83
2022/05/23 02:38:13;;;;;;;69.63;7.30;;;18.00;43.40;;;;;;6124170;23;20146;-83
2022/05/23 02:40:39;;;;;;;66.90;6.70;;;18.00;43.30;;;;;;6098456;23;20463;-83
2022/05/23 02:43:04;;;;;;;68.87;6.03;;;18.00;42.60;;;;;;6133510;23;20143;-85
2022/05/23 02:45:30;;;;;;;68.90;7.13;;;18.00;41.80;;;;;;6134980;23;20200;-85
2022/05/23 02:47:56;;;;;;;67.00;7.70;;;18.00;43.50;;;;;;6135046;23;20151;-85
2022/05/23 02:50:22;;;;;;;67.07;7.33;;;17.90;45.80;;;;;;6134010;23;20370;-84
2022/05/23 02:52:47;;;;;;;67.73;8.03;;;17.90;46.70;;;;;;6134551;23;20209;-85
2022/05/23 02:55:13;;;;;;;67.57;7.47;;;17.90;48.20;;;;;;6133797;23;20143;-85
2022/05/23 02:57:39;;;;;;;67.83;7.03;;;17.90;47.00;;;;;;6134524;23;20228;-84
2022/05/23 03:00:07;;;;;;;69.67;10.10;;;17.90;47.90;;;;;;6134037;23;20166;-85
2022/05/23 03:05:17;;;;;;;68.10;8.43;;;17.90;48.40;;;;;;6133918;23;20361;-85
2022/05/23 03:07:43;;;;;;;67.97;9.17;;;17.90;50.20;;;;;;6134598;23;20410;-85
2022/05/23 03:10:09;;;;;;;69.30;8.20;;;17.90;49.20;;;;;;6109109;23;20379;-85
2022/05/23 03:12:35;;;;;;;70.50;9.33;;;17.90;50.30;;;;;;6134635;23;20391;-85
2022/05/23 03:15:02;;;;;;;68.40;9.87;;;17.80;50.50;;;;;;6133818;23;20159;-85
2022/05/23 03:17:28;;;;;;;70.27;10.77;;;17.80;52.10;;;;;;6133827;23;20405;-85
2022/05/23 03:19:54;;;;;;;68.63;9.73;;;17.70;51.20;;;;;;6134068;23;20556;-85
2022/05/23 03:28:03;;;;;;;;;;;;;;;;;;;;;
2022/05/23 03:30:36;;;;;;;73.93;9.13;;;17.80;51.40;;;;;;6126061;22;20907;-86
2022/05/23 03:36:10;;;;;;;68.60;9.17;;;17.90;50.90;;;;;;6103640;23;20463;-86
2022/05/23 03:38:35;;;;;;;67.20;8.93;;;17.90;51.30;;;;;;6069341;23;20384;-86
2022/05/23 03:41:27;;;;;;;69.17;8.70;;;17.80;51.30;;;;;;6095356;23;20788;-86
2022/05/23 03:43:58;;;;;;;67.50;8.77;;;17.90;51.10;;;;;;6097379;23;20139;-86
2022/05/23 03:46:24;;;;;;;68.07;8.70;;;17.80;52.50;;;;;;6070624;23;20411;-86
2022/05/23 03:48:50;;;;;;;69.40;10.20;;;17.80;52.40;;;;;;6095102;23;20378;-86
2022/05/23 03:51:16;;;;;;;70.10;9.13;;;17.80;52.10;;;;;;6069294;23;20402;-87
2022/05/23 03:53:47;;;;;;;70.57;9.50;;;17.70;53.10;;;;;;6069286;23;20433;-86
2022/05/23 03:56:16;;;;;;;66.90;7.97;;;17.70;53.70;;;;;;6095071;23;20378;-86
2022/05/23 03:58:44;;;;;;;67.20;8.30;;;17.70;57.90;;;;;;6095239;23;20368;-86
2022/05/23 04:01:16;;;;;;;68.40;6.90;;;17.70;56.60;;;;;;6095085;23;20402;-86
2022/05/23 04:03:53;;;;;;;67.00;6.43;;;17.70;58.30;;;;;;6095271;23;20506;-86
2022/05/23 04:06:27;;;;;;;67.60;6.90;;;17.80;58.90;;;;;;6070819;23;20410;-86
2022/05/23 04:08:55;;;;;;;66.90;8.37;;;17.80;57.00;;;;;;6096570;23;20369;-86
2022/05/23 04:11:21;;;;;;;66.87;7.50;;;17.90;56.60;;;;;;6094992;23;20391;-86
2022/05/23 04:14:02;;;;;;;68.67;7.93;;;17.80;59.30;;;;;;6070730;23;20379;-86
2022/05/23 04:16:29;;;;;;;67.33;5.97;;;17.80;60.10;;;;;;6070707;23;20379;-86
2022/05/23 04:18:56;;;;;;;67.03;7.27;;;17.80;60.50;;;;;;6069822;23;20388;-86
2022/05/23 04:21:24;;;;;;;72.07;5.57;;;17.70;59.10;;;;;;6069619;23;20422;-86
2022/05/23 04:23:52;;;;;;;66.30;5.80;;;17.70;63.70;;;;;;6071038;23;20394;-86
2022/05/23 04:26:18;;;;;;;66.63;6.57;;;17.80;60.90;;;;;;6068700;23;20506;-86
2022/05/23 04:28:52;;;;;;;67.50;6.53;;;17.90;57.90;;;;;;6069073;23;20746;-86
2022/05/23 04:31:21;;;;;;;66.60;5.70;;;17.90;59.20;;;;;;6094612;23;20167;-86
2022/05/23 04:40:03;;;;;;;67.47;6.67;;;18.10;56.10;;;;;;6046606;23;20873;-86
2022/05/23 04:42:43;;;;;;;71.20;6.90;;;18.20;57.30;;;;;;6094472;23;20450;-86
2022/05/23 04:45:15;;;;;;;68.07;6.90;;;18.20;58.50;;;;;;6092647;23;20858;-86
2022/05/23 04:50:26;;;;;;;67.90;6.40;;;18.10;55.10;;;;;;6094650;23;20371;-86
2022/05/23 04:52:58;;;;;;;67.07;6.90;;;17.90;58.60;;;;;;6093988;23;20395;-86
2022/05/23 04:55:24;;;;;;;67.47;6.50;;;17.90;56.00;;;;;;6094237;23;20456;-86
2022/05/23 04:57:52;;;;;;;66.87;6.17;;;17.90;57.90;;;;;;6094431;23;20837;-86
2022/05/23 05:00:19;;;;;;;66.07;5.77;;;17.80;60.20;;;;;;6094637;23;20170;-86
2022/05/23 05:02:59;;;;;;;65.47;4.80;;;17.80;62.20;;;;;;6069277;23;20400;-89
2022/05/23 05:05:37;;;;;;;66.97;5.47;;;17.80;65.70;;;;;;6068946;23;20375;-88
2022/05/23 05:08:06;;;;;;;67.77;5.03;;;17.90;63.40;;;;;;6094106;23;20348;-89
2022/05/23 05:10:32;;;;;;;66.73;5.93;;;18.00;63.20;;;;;;6068940;23;20380;-89
2022/05/23 05:13:00;;;;;;;67.43;5.40;;;17.90;59.20;;;;;;6068406;23;20379;-88
2022/05/23 05:15:27;;;;;;;68.83;4.90;;;17.90;59.30;;;;;;6093876;23;20668;-88
2022/05/23 05:17:54;;;;;;;65.97;4.90;;;17.80;59.10;;;;;;6094674;23;20387;-88
2022/05/23 05:21:25;;;;;;;67.40;5.10;;;17.90;58.60;;;;;;6095012;23;20375;-89
2022/05/23 05:23:31;;;;;;;67.40;5.30;;;17.90;58.50;;;;;;6101821;23;20391;-88
2022/05/23 05:25:57;;;;;;;66.60;4.90;;;17.80;59.20;;;;;;6068126;23;20418;-88
2022/05/23 05:28:23;;;;;;;67.10;5.23;;;17.70;58.90;;;;;;6093801;23;20403;-88
2022/05/23 05:31:12;;;;;;;65.30;4.37;;;17.80;60.80;;;;;;6093574;23;20166;-89
2022/05/23 05:33:44;;;;;;;66.83;5.13;;;17.80;61.50;;;;;;6093673;23;20517;-88
2022/05/23 05:36:19;;;;;;;65.60;4.33;;;17.80;58.70;;;;;;6068289;23;20526;-88
2022/05/23 05:38:51;;;;;;;65.90;5.40;;;17.80;61.90;;;;;;6093656;23;20359;-88
2022/05/23 05:41:28;;;;;;;66.13;4.70;;;17.90;57.40;;;;;;6093503;23;20390;-89
2022/05/23 05:44:03;;;;;;;65.10;4.17;;;17.90;58.80;;;;;;6093491;23;20406;-89
2022/05/23 05:46:42;;;;;;;66.27;4.77;;;18.00;59.30;;;;;;6067983;23;20498;-88
2022/05/23 05:49:12;;;;;;;70.70;4.53;;;18.00;59.80;;;;;;6093796;23;20352;-88
2022/05/23 05:51:39;;;;;;;69.60;4.80;;;18.10;56.80;;;;;;6093784;23;20390;-88
2022/05/23 05:54:08;;;;;;;67.33;5.30;;;18.20;56.30;;;;;;6094030;23;20729;-88
2022/05/23 05:56:34;;;;;;;68.87;4.80;;;18.20;57.70;;;;;;6067892;23;20518;-88
2022/05/23 05:59:07;;;;;;;67.23;5.00;;;18.40;55.10;;;;;;6067906;23;20368;-87
2022/05/23 06:01:33;;;;;;;72.57;4.90;;;18.40;51.50;;;;;;6068132;23;20400;-88
2022/05/23 06:03:59;;;;;;;66.90;4.37;;;18.40;54.10;;;;;;6068021;23;20384;-88
2022/05/23 06:11:59;;;;;;;66.30;4.50;;;18.70;53.30;;;;;;6093190;23;20390;-88
2022/05/23 06:14:25;;;;;;;67.10;4.70;;;18.60;52.50;;;;;;6067952;23;20415;-86
2022/05/23 06:16:51;;;;;;;66.97;4.80;;;18.70;52.70;;;;;;6068379;23;20147;-88
2022/05/23 06:19:17;;;;;;;67.90;5.17;;;18.80;51.80;;;;;;6093443;23;20143;-88
2022/05/23 06:21:43;;;;;;;68.17;6.47;;;18.80;52.50;;;;;;6067364;23;20756;-88
2022/05/23 06:24:12;;;;;;;68.87;5.60;;;18.90;47.00;;;;;;6093886;23;20433;-88
2022/05/23 06:26:45;;;;;;;67.33;5.90;;;18.90;49.10;;;;;;6068223;23;20179;-88
2022/05/23 06:29:11;;;;;;;66.37;5.50;;;18.90;47.40;;;;;;6067802;23;20846;-88
2022/05/23 06:31:40;;;;;;;67.77;5.87;;;19.10;46.80;;;;;;6067854;23;20430;-88
2022/05/23 06:34:06;;;;;;;68.97;8.30;;;19.30;46.30;;;;;;6067926;23;20246;-88
2022/05/23 06:36:37;;;;;;;66.20;7.00;;;19.30;40.50;;;;;;6068329;23;20391;-86
2022/05/23 06:39:03;;;;;;;67.57;7.37;;;19.30;40.60;;;;;;6068158;23;20148;-88
2022/05/23 06:41:29;;;;;;;66.60;7.87;;;19.30;43.40;;;;;;6068540;23;20698;-87
2022/05/23 06:43:55;;;;;;;66.00;6.60;;;19.30;42.10;;;;;;6094561;23;20148;-86
2022/05/23 06:46:21;;;;;;;68.70;7.00;;;19.30;42.40;;;;;;6093339;23;20172;-86
2022/05/23 06:48:46;;;;;;;67.17;7.43;;;19.30;44.80;;;;;;6093326;23;20143;-86
2022/05/23 06:51:15;;;;;;;68.20;7.70;;;19.40;41.20;;;;;;6067908;23;20936;-86
2022/05/23 06:53:41;;;;;;;68.17;8.00;;;19.40;42.90;;;;;;6068142;23;20186;-86
2022/05/23 06:56:07;;;;;;;69.77;7.83;;;19.50;42.70;;;;;;6093520;23;20368;-85
2022/05/23 06:58:38;;;;;;;66.63;6.87;;;19.50;43.50;;;;;;6067774;23;20434;-85
2022/05/23 07:01:54;;;;;;;66.80;6.77;;;19.50;44.20;;;;;;6092901;23;20388;-87
2022/05/23 07:13:37;;;;;;;66.47;7.13;;;19.50;46.30;;;;;;6094869;23;20876;-86
2022/05/23 07:16:34;;;;;;;68.17;5.97;;;19.50;43.10;;;;;;6069014;23;20381;-89
2022/05/23 07:19:44;;;;;;;67.23;7.13;;;19.50;48.80;;;;;;6094644;23;20447;-89
2022/05/23 07:22:18;;;;;;;68.40;7.10;;;19.60;47.70;;;;;;6093784;23;20461;-89
2022/05/23 07:24:59;;;;;;;66.07;5.43;;;19.70;45.30;;;;;;6070051;23;20430;-89
2022/05/23 07:27:57;;;;;;;68.80;5.73;;;19.90;48.50;;;;;;6094538;23;20440;-86
2022/05/23 07:30:28;;;;;;;71.27;5.67;;;20.00;43.50;;;;;;6067587;23;20382;-88
2022/05/23 07:33:20;;;;;;;;;;;;;;;;;;;;;
2022/05/23 07:35:52;;;;;;;68.00;5.77;;;20.10;44.10;;;;;;6105251;23;20450;-87
2022/05/23 07:38:18;;;;;;;66.97;5.50;;;20.20;41.70;;;;;;6094276;23;20348;-86
2022/05/23 07:40:43;;;;;;;68.67;6.03;;;20.30;38.30;;;;;;6094525;23;20428;-87
2022/05/23 07:43:16;;;;;;;66.90;5.07;;;20.60;39.70;;;;;;6094098;23;20218;-87
2022/05/23 07:45:42;;;;;;;67.07;6.00;;;20.70;39.10;;;;;;6069163;23;20489;-87
2022/05/23 07:48:33;;;;;;;;;;;;;;;;;;;;;
2022/05/23 07:51:09;;;;;;;66.97;5.63;;;20.70;29.60;;;;;;6094563;23;20471;-87
2022/05/23 08:02:07;;;;;;;65.97;4.90;;;20.80;28.90;;;;;;6093771;23;20500;-87
2022/05/23 08:04:39;;;;;;;66.27;5.10;;;20.60;29.80;;;;;;6094434;23;20369;-87
2022/05/23 08:07:09;;;;;;;67.73;4.07;;;20.40;31.10;;;;;;6094037;23;20419;-86
2022/05/23 08:09:39;;;;;;;67.90;4.63;;;20.50;31.20;;;;;;6069386;23;20434;-87
2022/05/23 08:12:23;;;;;;;;;;;;;;;;;;;;;
2022/05/23 08:15:11;;;;;;;66.80;4.63;;;20.60;32.80;;;;;;6094273;23;20884;-86
2022/05/23 08:17:37;;;;;;;70.77;5.83;;;20.60;32.20;;;;;;6069569;23;20386;-86
2022/05/23 08:20:10;;;;;;;68.47;5.60;;;20.60;33.40;;;;;;6093990;23;20839;-87
2022/05/23 08:22:36;;;;;;;67.17;5.60;;;20.50;32.40;;;;;;6068258;23;20230;-87
2022/05/23 08:25:02;;;;;;;66.17;5.60;;;20.50;34.00;;;;;;6094116;23;20365;-86
2022/05/23 08:27:35;;;;;;;68.10;6.40;;;20.50;32.00;;;;;;6093622;23;20169;-87
2022/05/23 08:30:08;;;;;;;67.07;6.53;;;20.60;38.30;;;;;;6094180;23;20417;-86
2022/05/23 08:32:33;;;;;;;67.67;6.07;;;20.70;34.60;;;;;;6067888;23;20786;-86
2022/05/23 08:34:59;;;;;;;66.80;6.20;;;20.70;34.70;;;;;;6094067;23;20400;-86
2022/05/23 08:37:24;;;;;;;66.27;6.00;;;20.80;33.20;;;;;;6093876;23;20488;-85
2022/05/23 08:40:05;;;;;;;68.17;5.93;;;20.90;36.30;;;;;;6068146;23;20681;-86
2022/05/23 08:42:52;;;;;;;65.83;5.10;;;21.10;35.90;;;;;;6093799;23;20166;-86
2022/05/23 08:45:34;;;;;;;69.40;5.17;;;21.30;30.70;;;;;;6094109;23;20354;-86
2022/05/23 08:48:41;;;;;;;70.20;5.97;;;21.40;30.10;;;;;;6068155;23;20748;-87
2022/05/23 08:51:30;;;;;;;67.57;5.23;;;21.60;29.90;;;;;;6093662;23;20466;-86
2022/05/23 08:54:40;;;;;;;66.33;4.57;;;21.60;26.90;;;;;;6068149;23;20364;-86
2022/05/23 08:57:50;;;;;;;69.37;4.13;;;21.60;27.50;;;;;;6092497;23;20368;-86
2022/05/23 09:00:51;;;;;;;66.30;4.33;;;21.60;26.00;;;;;;6055119;23;20387;-86
2022/05/23 09:03:52;;;;;;;67.17;4.40;;;21.60;26.00;;;;;;6087868;23;20394;-87
2022/05/23 09:06:50;;;;;;;66.10;4.13;;;21.80;26.70;;;;;;6071746;23;20426;-86
2022/05/23 09:09:31;;;;;;;65.97;3.40;;;21.80;23.70;;;;;;6194559;23;20387;-87
2022/05/23 09:12:10;;;;;;;67.53;4.90;;;21.90;23.60;;;;;;6093325;23;20391;-87
2022/05/23 09:14:54;;;;;;;67.40;4.13;;;22.10;31.30;;;;;;6093895;23;20356;-87
2022/05/23 09:17:59;;;;;;;66.40;3.67;;;22.00;24.60;;;;;;6094167;23;20367;-87
2022/05/23 09:20:52;;;;;;;66.50;3.83;;;22.20;24.70;;;;;;5977294;23;20383;-87
2022/05/23 09:23:25;;;;;;;66.30;3.90;;;22.30;24.20;;;;;;6018997;23;20894;-87
2022/05/23 09:25:58;;;;;;;66.27;3.77;;;22.50;25.90;;;;;;6067805;23;20392;-87
2022/05/23 09:28:42;;;;;;;67.57;3.90;;;22.60;24.20;;;;;;6093665;23;20462;-87
2022/05/23 09:31:26;;;;;;;68.30;4.07;;;22.80;25.90;;;;;;6093258;23;20728;-86
2022/05/23 09:34:05;;;;;;;65.97;3.60;;;22.90;21.10;;;;;;6094102;23;20344;-86
2022/05/23 09:37:27;;;;;;;66.47;4.00;;;22.90;19.00;;;;;;6067799;23;20383;-86
2022/05/23 09:50:12;;;;;;;69.47;12.03;;;23.20;3.30;;;;;;5977590;24;20411;-85
2022/05/23 09:52:59;;;;;;;69.87;15.00;;;23.30;1.30;;;;;;6016802;23;20518;-85
2022/05/23 09:55:47;;;;;;;71.50;16.07;;;23.30;8.00;;;;;;6062821;23;20381;-86
2022/05/23 09:58:22;;;;;;;71.07;15.37;;;23.50;6.80;;;;;;6093533;23;20839;-86
2022/05/23 10:01:13;;;;;;;69.23;12.17;;;23.60;3.20;;;;;;6093727;23;20389;-86
2022/05/23 10:08:01;;;;;;;;;;;;;;;;;;;;;
2022/05/23 10:11:08;;;;;;;67.47;4.33;;;25.10;1.00;;;;;;6004901;23;20462;-86
2022/05/23 10:14:07;;;;;;;67.37;3.47;;;25.20;1.00;;;;;;6008485;23;20487;-86
2022/05/23 10:16:55;;;;;;;68.87;3.43;;;25.00;1.00;;;;;;6074420;23;20474;-85
2022/05/23 10:19:41;;;;;;;65.77;3.37;;;24.80;1.00;;;;;;6068112;23;20455;-86
2022/05/23 10:22:26;;;;;;;66.50;3.50;;;24.50;1.00;;;;;;6068633;23;20412;-86
2022/05/23 10:25:16;;;;;;;66.40;3.90;;;24.30;1.00;;;;;;6067489;23;20425;-87
2022/05/23 10:27:55;;;;;;;68.80;3.83;;;24.60;1.00;;;;;;5976000;23;20508;-86
2022/05/23 10:30:41;;;;;;;66.33;3.50;;;24.70;1.00;;;;;;6066492;23;20400;-86
2022/05/23 10:33:13;;;;;;;65.77;3.43;;;24.50;1.00;;;;;;6068435;23;20391;-85
2022/05/23 10:36:07;;;;;;;70.03;6.07;;;24.40;1.00;;;;;;6093220;23;20374;-84
2022/05/23 10:45:19;;;;;;;65.77;2.90;;;25.40;1.00;;;;;;6094998;23;20677;-85
2022/05/23 10:48:11;;;;;;;67.60;4.20;;;25.60;1.00;;;;;;6004515;23;20438;-86
2022/05/23 10:51:09;;;;;;;66.10;3.10;;;25.60;1.00;;;;;;6092796;23;20386;-86
2022/05/23 10:53:55;;;;;;;70.63;3.70;;;25.60;1.00;;;;;;6094769;23;20351;-85
2022/05/23 10:56:50;;;;;;;66.50;3.30;;;25.70;1.00;;;;;;6095342;23;20336;-85
2022/05/23 10:59:31;;;;;;;66.70;3.20;;;25.90;1.00;;;;;;6069924;23;20379;-85
2022/05/23 11:02:12;;;;;;;67.97;3.50;;;25.60;1.00;;;;;;6094481;23;20398;-86
2022/05/23 11:05:10;;;;;;;66.67;3.30;;;25.40;1.00;;;;;;6094975;23;20332;-85
2022/05/23 11:08:18;;;;;;;69.30;3.27;;;25.40;1.00;;;;;;6094338;23;20418;-85
2022/05/23 11:10:56;;;;;;;66.07;3.10;;;25.80;1.00;;;;;;6093715;23;20391;-85
2022/05/23 11:14:11;;;;;;;66.47;3.40;;;25.90;1.00;;;;;;6094935;23;20430;-86
2022/05/23 11:16:55;;;;;;;69.10;3.83;;;25.70;1.00;;;;;;5978603;23;20386;-86
2022/05/23 11:19:35;;;;;;;66.37;3.50;;;25.50;1.00;;;;;;5978507;23;20386;-86
2022/05/23 11:22:29;;;;;;;;;;;;;;;;;;;;;
2022/05/23 11:25:04;;;;;;;67.30;4.40;;;25.20;1.00;;;;;;6094841;23;20454;-85
2022/05/23 11:36:24;;;;;;;71.77;12.67;;;25.10;6.50;;;;;;6094360;23;20729;-86
2022/05/23 11:39:02;;;;;;;67.07;4.93;;;25.40;12.10;;;;;;6068468;23;20387;-86
2022/05/23 11:42:21;;;;;;;67.80;7.87;;;25.40;7.40;;;;;;6069291;23;20398;-85
2022/05/23 11:44:48;;;;;;;68.10;6.33;;;25.30;9.70;;;;;;6068791;23;20400;-85
2022/05/23 11:47:25;;;;;;;68.63;7.03;;;25.40;7.80;;;;;;6069166;23;20825;-85
2022/05/23 11:50:30;;;;;;;;;;;;;;;;;;;;;
2022/05/23 11:53:22;;;;;;;67.00;5.73;;;25.50;8.90;;;;;;6093684;23;20473;-86
2022/05/23 11:55:52;;;;;;;69.80;8.43;;;25.30;9.80;;;;;;6069385;23;20386;-85
2022/05/23 11:58:36;;;;;;;71.00;10.60;;;25.10;12.20;;;;;;6094013;23;20443;-85
2022/05/23 12:01:30;;;;;;;70.97;10.40;;;25.00;16.50;;;;;;6069108;23;20406;-86
2022/05/23 12:03:56;;;;;;;69.47;11.47;;;25.00;15.80;;;;;;6095353;23;20799;-86
2022/05/23 12:06:22;;;;;;;71.03;15.37;;;25.00;18.10;;;;;;6068586;23;20863;-86
2022/05/23 12:09:51;;;;;;;71.27;15.30;;;25.00;21.40;;;;;;6094407;23;20376;-85
2022/05/23 12:12:49;;;;;;;70.03;10.83;;;25.10;23.40;;;;;;6111633;23;20511;-85
2022/05/23 12:15:46;;;;;;;69.67;13.30;;;25.30;25.30;;;;;;6093794;23;20878;-85
2022/05/23 12:18:39;;;;;;;69.90;13.27;;;25.40;24.50;;;;;;6068680;23;20721;-85
2022/05/23 12:21:39;;;;;;;68.73;12.20;;;25.40;20.50;;;;;;6068670;23;20414;-86
2022/05/23 12:24:52;;;;;;;68.70;10.63;;;25.30;22.80;;;;;;6095490;23;20410;-86
2022/05/23 12:27:56;;;;;;;70.80;10.67;;;25.30;27.60;;;;;;6101203;23;20916;-86
2022/05/23 12:31:11;;;;;;;68.17;8.13;;;25.30;27.20;;;;;;6094856;23;20371;-87
2022/05/23 12:34:07;;;;;;;66.77;6.40;;;25.30;36.20;;;;;;6191261;23;20440;-87
2022/05/23 12:36:52;;;;;;;68.00;5.90;;;25.00;36.20;;;;;;6068456;23;20386;-86
2022/05/23 12:39:36;;;;;;;65.13;4.23;;;25.20;32.80;;;;;;6068373;23;20394;-86
2022/05/23 12:42:32;;;;;;;;;;;;;;;;;;;;;
2022/05/23 12:46:17;;;;;;;;;;;;;;;;;;;;;
2022/05/23 12:49:22;;;;;;;69.40;4.13;;;25.00;37.80;;;;;;5988179;23;20461;-86
2022/05/23 12:52:08;;;;;;;65.67;3.40;;;25.00;41.10;;;;;;6094581;23;20383;-86
2022/05/23 12:55:16;;;;;;;70.50;3.83;;;24.90;39.50;;;;;;6068354;23;20393;-86
2022/05/23 12:58:02;;;;;;;66.97;3.33;;;24.70;42.00;;;;;;6093992;23;20351;-86
2022/05/23 13:01:05;;;;;;;72.17;4.63;;;24.80;40.30;;;;;;6067813;23;20375;-86
2022/05/23 13:03:54;;;;;;;66.37;3.90;;;24.70;39.30;;;;;;6191003;23;20432;-86
2022/05/23 13:06:55;;;;;;;67.33;3.83;;;24.50;38.80;;;;;;6071375;23;20438;-86
2022/05/23 13:09:38;;;;;;;68.00;3.83;;;24.30;43.60;;;;;;6094375;23;20357;-86
2022/05/23 13:12:30;;;;;;;68.67;4.93;;;24.30;50.50;;;;;;6069707;23;20402;-85
2022/05/23 13:14:59;;;;;;;69.27;8.93;;;24.00;63.80;;;;;;6181206;23;20379;-86
2022/05/23 13:17:39;;;;;;;70.00;9.20;;;23.90;91.60;;;;;;6070995;23;20392;-85
2022/05/23 13:23:04;;;;;;;73.27;11.90;;;23.20;99.90;;;;;;6098620;23;20768;-85
2022/05/23 13:25:33;;;;;;;70.30;11.27;;;23.00;99.90;;;;;;6098313;23;20443;-85
2022/05/23 13:27:59;;;;;;;70.57;15.53;;;23.20;99.90;;;;;;6072461;23;20493;-85
2022/05/23 13:30:28;;;;;;;73.23;19.60;;;23.00;99.90;;;;;;6072930;23;20380;-85
2022/05/23 13:33:14;;;;;;;69.27;15.13;;;22.80;99.90;;;;;;6095380;23;20170;-85
2022/05/23 13:35:45;;;;;;;71.10;13.67;;;22.90;99.90;;;;;;6069455;23;20720;-85
2022/05/23 13:38:18;;;;;;;68.70;13.90;;;22.90;99.90;;;;;;6070686;23;20383;-85
2022/05/23 13:40:53;;;;;;;74.90;21.37;;;23.00;99.90;;;;;;6070310;23;20706;-85
2022/05/23 13:43:23;;;;;;;71.13;16.30;;;23.10;99.90;;;;;;6069296;23;20724;-85
2022/05/23 13:46:08;;;;;;;70.87;16.60;;;23.10;99.90;;;;;;6095690;23;20860;-85
2022/05/23 13:48:40;;;;;;;70.00;19.50;;;23.10;99.90;;;;;;6070375;23;20388;-84
2022/05/23 13:51:11;;;;;;;71.67;24.00;;;23.20;99.90;;;;;;6095793;23;20389;-85
2022/05/23 13:53:47;;;;;;;71.30;14.13;;;23.30;99.90;;;;;;6069587;23;20368;-85
2022/05/23 13:56:14;;;;;;;70.40;16.37;;;23.40;99.90;;;;;;6070052;23;20381;-86
2022/05/23 13:58:50;;;;;;;71.93;19.23;;;23.60;99.90;;;;;;6067854;23;20381;-86
2022/05/23 14:01:29;;;;;;;66.60;9.23;;;24.10;99.90;;;;;;6067774;23;20400;-86
2022/05/23 14:04:11;;;;;;;69.70;9.60;;;24.20;99.90;;;;;;6093306;23;20418;-85
2022/05/23 14:06:44;;;;;;;67.97;9.90;;;24.70;99.90;;;;;;6068013;23;20418;-85
2022/05/23 14:09:12;;;;;;;69.60;7.93;;;25.20;99.90;;;;;;6093810;23;20350;-85
2022/05/23 14:11:50;;;;;;;69.53;8.97;;;25.30;99.90;;;;;;6067880;23;20455;-85
2022/05/23 14:14:34;;;;;;;67.77;7.70;;;25.00;99.90;;;;;;6068293;23;20755;-85
2022/05/23 14:17:15;;;;;;;68.30;7.10;;;25.30;99.90;;;;;;6091903;23;20371;-84
2022/05/23 14:19:42;;;;;;;68.20;6.30;;;25.20;99.90;;;;;;6093753;23;20360;-85
2022/05/23 14:22:35;;;;;;;67.93;7.57;;;24.90;99.90;;;;;;6098410;23;20398;-85
2022/05/23 14:25:24;;;;;;;68.90;8.57;;;24.80;99.90;;;;;;6099108;23;20365;-85
2022/05/23 14:27:54;;;;;;;67.53;7.27;;;24.50;99.90;;;;;;6071614;23;20750;-85
2022/05/23 14:30:35;;;;;;;67.47;7.43;;;24.30;99.90;;;;;;6094360;23;20851;-85
2022/05/23 14:33:33;;;;;;;68.10;8.50;;;24.20;99.90;;;;;;6093662;23;20346;-85
2022/05/23 14:36:36;;;;;;;68.07;8.63;;;23.80;99.90;;;;;;6046784;23;20793;-85
2022/05/23 14:39:34;;;;;;;70.47;7.33;;;23.70;99.90;;;;;;6068642;23;20367;-85
2022/05/23 14:42:59;;;;;;;69.70;8.30;;;23.60;99.90;;;;;;6093285;23;20382;-85
2022/05/23 14:45:29;;;;;;;67.03;7.43;;;23.40;99.90;;;;;;5977757;23;20375;-85
2022/05/23 14:48:17;;;;;;;69.47;12.00;;;23.30;99.90;;;;;;5977814;24;20442;-85
2022/05/23 14:51:18;;;;;;;68.80;16.03;;;23.20;99.90;;;;;;6069609;23;20475;-85
2022/05/23 14:56:39;;;;;;;71.77;21.73;;;22.80;99.90;;;;;;6094311;23;20347;-84
2022/05/23 15:01:59;;;;;;;69.77;18.30;;;22.70;99.90;;;;;;6102894;23;20390;-86
2022/05/23 15:04:33;;;;;;;69.80;18.27;;;22.50;99.90;;;;;;6068931;23;20364;-85
2022/05/23 15:07:02;;;;;;;79.80;20.03;;;22.50;99.90;;;;;;6093363;23;20410;-85
2022/05/23 15:09:28;;;;;;;68.63;13.90;;;22.40;99.90;;;;;;6094766;23;20422;-84